sensor_id;sensor_type;location;lat;lon;timestamp;pressure;altitude;pressure_sealevel;temperature;humidity
54308;BME280;40208;39.778;2.710;2023-06-14T00:00:05;100655.63;;;23.02;100.00
54308;BME280;40208;39.778;2.710;2023-06-14T00:02:51;100636.41;;;22.96;100.00
54308;BME280;40208;39.778;2.710;2023-06-14T00:05:40;100663.69;;;23.12;100.00
54308;BME280;40208;39.778;2.710;2023-06-14T00:08:27;100658.03;;;23.05;100.00
54308;BME280;40208;39.778;2.710;2023-06-14T00:11:12;100646.66;;;23.02;100.00
54308;BME280;40208;39.778;2.710;2023-06-14T00:13:57;100664.00;;;23.09;100.00
54308;BME280;40208;39.778;2.710;2023-06-14T00:16:42;100660.06;;;22.94;100.00
54308;BME280;40208;39.778;2.710;2023-06-14T00:19:27;100660.75;;;22.96;100.00
54308;BME280;40208;39.778;2.710;2023-06-14T00:22:13;100671.16;;;23.00;100.00
54308;BME280;40208;39.778;2.710;2023-06-14T00:24:58;100659.34;;;22.92;100.00
54308;BME280;40208;39.778;2.710;2023-06-14T00:27:43;100536.34;;;22.22;100.00
54308;BME280;40208;39.778;2.710;2023-06-14T00:30:28;100641.31;;;22.82;100.00
54308;BME280;40208;39.778;2.710;2023-06-14T00:33:15;100654.09;;;23.00;100.00
54308;BME280;40208;39.778;2.710;2023-06-14T00:36:00;100616.06;;;22.74;100.00
54308;BME280;40208;39.778;2.710;2023-06-14T00:38:45;100628.22;;;22.88;100.00
54308;BME280;40208;39.778;2.710;2023-06-14T00:41:30;100642.13;;;22.93;100.00
54308;BME280;40208;39.778;2.710;2023-06-14T00:44:16;100632.69;;;22.97;100.00
54308;BME280;40208;39.778;2.710;2023-06-14T00:47:01;100530.28;;;22.38;100.00
54308;BME280;40208;39.778;2.710;2023-06-14T00:49:50;100635.97;;;23.00;100.00
54308;BME280;40208;39.778;2.710;2023-06-14T00:52:38;100607.56;;;22.86;100.00
54308;BME280;40208;39.778;2.710;2023-06-14T00:55:23;100482.31;;;22.13;100.00
54308;BME280;40208;39.778;2.710;2023-06-14T00:58:09;100614.38;;;22.91;100.00
54308;BME280;40208;39.778;2.710;2023-06-14T01:00:54;100589.28;;;22.71;100.00
54308;BME280;40208;39.778;2.710;2023-06-14T01:03:40;100625.91;;;22.93;100.00
54308;BME280;40208;39.778;2.710;2023-06-14T01:06:49;100625.19;;;22.91;100.00
54308;BME280;40208;39.778;2.710;2023-06-14T01:09:57;100627.06;;;22.90;100.00
54308;BME280;40208;39.778;2.710;2023-06-14T01:15:44;100597.97;;;22.74;100.00
54308;BME280;40208;39.778;2.710;2023-06-14T01:18:29;100622.38;;;22.82;100.00
54308;BME280;40208;39.778;2.710;2023-06-14T01:21:24;100488.22;;;21.98;100.00
54308;BME280;40208;39.778;2.710;2023-06-14T01:24:09;100590.06;;;22.63;100.00
54308;BME280;40208;39.778;2.710;2023-06-14T01:26:56;100530.81;;;22.24;100.00
54308;BME280;40208;39.778;2.710;2023-06-14T01:29:42;100556.22;;;22.31;100.00
54308;BME280;40208;39.778;2.710;2023-06-14T01:32:30;100618.38;;;22.69;100.00
54308;BME280;40208;39.778;2.710;2023-06-14T01:35:15;100611.41;;;22.66;100.00
54308;BME280;40208;39.778;2.710;2023-06-14T01:38:00;100600.78;;;22.55;100.00
54308;BME280;40208;39.778;2.710;2023-06-14T01:40:46;100607.88;;;22.56;100.00
54308;BME280;40208;39.778;2.710;2023-06-14T01:43:32;100589.78;;;22.38;100.00
54308;BME280;40208;39.778;2.710;2023-06-14T01:46:21;100622.19;;;22.48;100.00
54308;BME280;40208;39.778;2.710;2023-06-14T01:49:06;100616.81;;;22.38;100.00
54308;BME280;40208;39.778;2.710;2023-06-14T01:51:51;100603.19;;;22.30;100.00
54308;BME280;40208;39.778;2.710;2023-06-14T01:54:36;100614.38;;;22.45;100.00
54308;BME280;40208;39.778;2.710;2023-06-14T01:57:26;100605.22;;;22.28;100.00
54308;BME280;40208;39.778;2.710;2023-06-14T02:00:14;100585.22;;;22.01;100.00
54308;BME280;40208;39.778;2.710;2023-06-14T02:03:00;100627.97;;;22.26;100.00
54308;BME280;40208;39.778;2.710;2023-06-14T02:05:48;100638.94;;;22.24;100.00
54308;BME280;40208;39.778;2.710;2023-06-14T02:08:33;100630.97;;;22.22;100.00
54308;BME280;40208;39.778;2.710;2023-06-14T02:11:18;100628.84;;;22.16;100.00
54308;BME280;40208;39.778;2.710;2023-06-14T02:14:02;100634.00;;;22.10;100.00
54308;BME280;40208;39.778;2.710;2023-06-14T02:16:47;100582.03;;;21.69;100.00
54308;BME280;40208;39.778;2.710;2023-06-14T02:19:35;100590.31;;;21.67;100.00
54308;BME280;40208;39.778;2.710;2023-06-14T02:22:20;100594.59;;;21.60;100.00
54308;BME280;40208;39.778;2.710;2023-06-14T02:25:06;100621.56;;;21.79;100.00
54308;BME280;40208;39.778;2.710;2023-06-14T02:27:54;100613.78;;;21.67;100.00
54308;BME280;40208;39.778;2.710;2023-06-14T02:30:40;100606.66;;;21.56;100.00
54308;BME280;40208;39.778;2.710;2023-06-14T02:33:25;100624.41;;;21.68;100.00
54308;BME280;40208;39.778;2.710;2023-06-14T02:36:10;100576.97;;;21.46;100.00
54308;BME280;40208;39.778;2.710;2023-06-14T02:38:55;100592.88;;;21.59;100.00
54308;BME280;40208;39.778;2.710;2023-06-14T02:41:42;100600.81;;;21.70;100.00
54308;BME280;40208;39.778;2.710;2023-06-14T02:44:27;100619.69;;;21.80;100.00
54308;BME280;40208;39.778;2.710;2023-06-14T02:47:12;100621.00;;;21.76;100.00
54308;BME280;40208;39.778;2.710;2023-06-14T02:49:57;100635.06;;;21.79;100.00
54308;BME280;40208;39.778;2.710;2023-06-14T02:52:42;100591.34;;;21.47;100.00
54308;BME280;40208;39.778;2.710;2023-06-14T02:55:26;100652.13;;;21.80;100.00
54308;BME280;40208;39.778;2.710;2023-06-14T02:58:12;100642.88;;;21.73;100.00
54308;BME280;40208;39.778;2.710;2023-06-14T03:00:57;100630.41;;;21.62;100.00
54308;BME280;40208;39.778;2.710;2023-06-14T03:03:46;100663.34;;;21.75;100.00
54308;BME280;40208;39.778;2.710;2023-06-14T03:06:31;100659.25;;;21.62;100.00
54308;BME280;40208;39.778;2.710;2023-06-14T03:09:16;100642.38;;;21.50;100.00
54308;BME280;40208;39.778;2.710;2023-06-14T03:12:01;100667.34;;;21.62;100.00
54308;BME280;40208;39.778;2.710;2023-06-14T03:14:47;100633.97;;;21.33;100.00
54308;BME280;40208;39.778;2.710;2023-06-14T03:17:32;100668.06;;;21.44;100.00
54308;BME280;40208;39.778;2.710;2023-06-14T03:20:18;100620.59;;;21.12;100.00
54308;BME280;40208;39.778;2.710;2023-06-14T03:23:04;100664.66;;;21.42;100.00
54308;BME280;40208;39.778;2.710;2023-06-14T03:25:50;100666.78;;;21.38;100.00
54308;BME280;40208;39.778;2.710;2023-06-14T03:28:35;100666.38;;;21.43;100.00
54308;BME280;40208;39.778;2.710;2023-06-14T03:31:20;100647.75;;;21.40;100.00
54308;BME280;40208;39.778;2.710;2023-06-14T03:34:06;100641.91;;;21.35;100.00
54308;BME280;40208;39.778;2.710;2023-06-14T03:36:50;100632.97;;;21.34;100.00
54308;BME280;40208;39.778;2.710;2023-06-14T03:39:37;100641.38;;;21.41;100.00
54308;BME280;40208;39.778;2.710;2023-06-14T03:42:30;100630.81;;;21.28;100.00
54308;BME280;40208;39.778;2.710;2023-06-14T03:45:16;100645.59;;;21.34;100.00
54308;BME280;40208;39.778;2.710;2023-06-14T03:48:01;100657.56;;;21.41;100.00
54308;BME280;40208;39.778;2.710;2023-06-14T03:50:46;100645.59;;;21.34;100.00
54308;BME280;40208;39.778;2.710;2023-06-14T03:53:31;100664.22;;;21.37;100.00
54308;BME280;40208;39.778;2.710;2023-06-14T03:56:16;100663.50;;;21.35;100.00
54308;BME280;40208;39.778;2.710;2023-06-14T03:59:02;100646.47;;;21.25;100.00
54308;BME280;40208;39.778;2.710;2023-06-14T04:01:47;100656.53;;;21.32;100.00
54308;BME280;40208;39.778;2.710;2023-06-14T04:04:32;100644.06;;;21.22;100.00
54308;BME280;40208;39.778;2.710;2023-06-14T04:07:17;100594.88;;;20.89;100.00
54308;BME280;40208;39.778;2.710;2023-06-14T04:10:06;100662.22;;;21.29;100.00
54308;BME280;40208;39.778;2.710;2023-06-14T04:12:51;100650.59;;;21.19;100.00
54308;BME280;40208;39.778;2.710;2023-06-14T04:15:36;100609.22;;;20.99;100.00
54308;BME280;40208;39.778;2.710;2023-06-14T04:18:22;100606.53;;;21.09;100.00
54308;BME280;40208;39.778;2.710;2023-06-14T04:21:08;100663.94;;;21.40;100.00
54308;BME280;40208;39.778;2.710;2023-06-14T04:23:53;100664.50;;;21.34;100.00
54308;BME280;40208;39.778;2.710;2023-06-14T04:26:45;100664.22;;;21.27;100.00
54308;BME280;40208;39.778;2.710;2023-06-14T04:29:32;100603.09;;;20.87;100.00
54308;BME280;40208;39.778;2.710;2023-06-14T04:32:19;100649.28;;;21.13;100.00
54308;BME280;40208;39.778;2.710;2023-06-14T04:35:07;100664.94;;;21.20;100.00
54308;BME280;40208;39.778;2.710;2023-06-14T04:37:52;100638.06;;;20.99;100.00
54308;BME280;40208;39.778;2.710;2023-06-14T04:40:37;100668.59;;;21.18;100.00
54308;BME280;40208;39.778;2.710;2023-06-14T04:43:29;100642.31;;;21.01;100.00
54308;BME280;40208;39.778;2.710;2023-06-14T04:46:15;100637.63;;;20.93;100.00
54308;BME280;40208;39.778;2.710;2023-06-14T04:48:59;100676.28;;;21.23;100.00
54308;BME280;40208;39.778;2.710;2023-06-14T04:51:46;100624.28;;;20.92;100.00
54308;BME280;40208;39.778;2.710;2023-06-14T04:54:44;100688.63;;;21.26;100.00
54308;BME280;40208;39.778;2.710;2023-06-14T04:57:31;100665.63;;;21.12;100.00
54308;BME280;40208;39.778;2.710;2023-06-14T05:00:16;100685.25;;;21.24;100.00
54308;BME280;40208;39.778;2.710;2023-06-14T05:03:03;100690.66;;;21.24;100.00
54308;BME280;40208;39.778;2.710;2023-06-14T05:05:52;100706.19;;;21.41;100.00
54308;BME280;40208;39.778;2.710;2023-06-14T05:08:37;100690.06;;;21.30;100.00
54308;BME280;40208;39.778;2.710;2023-06-14T05:11:22;100706.31;;;21.39;100.00
54308;BME280;40208;39.778;2.710;2023-06-14T05:14:12;100664.63;;;21.13;100.00
54308;BME280;40208;39.778;2.710;2023-06-14T05:16:57;100694.19;;;21.34;100.00
54308;BME280;40208;39.778;2.710;2023-06-14T05:19:42;100689.78;;;21.33;100.00
54308;BME280;40208;39.778;2.710;2023-06-14T05:22:27;100699.06;;;21.40;100.00
54308;BME280;40208;39.778;2.710;2023-06-14T05:25:12;100693.91;;;21.37;100.00
54308;BME280;40208;39.778;2.710;2023-06-14T05:27:57;100710.31;;;21.45;100.00
54308;BME280;40208;39.778;2.710;2023-06-14T05:30:42;100702.47;;;21.42;100.00
54308;BME280;40208;39.778;2.710;2023-06-14T05:33:26;100716.38;;;21.47;100.00
54308;BME280;40208;39.778;2.710;2023-06-14T05:36:11;100719.81;;;21.49;100.00
54308;BME280;40208;39.778;2.710;2023-06-14T05:38:57;100715.97;;;21.52;100.00
54308;BME280;40208;39.778;2.710;2023-06-14T05:41:47;100719.38;;;21.54;100.00
54308;BME280;40208;39.778;2.710;2023-06-14T05:44:32;100714.81;;;21.54;100.00
54308;BME280;40208;39.778;2.710;2023-06-14T05:47:17;100713.72;;;21.57;100.00
54308;BME280;40208;39.778;2.710;2023-06-14T05:50:02;100700.63;;;21.52;100.00
54308;BME280;40208;39.778;2.710;2023-06-14T05:52:47;100675.72;;;21.39;100.00
54308;BME280;40208;39.778;2.710;2023-06-14T05:55:32;100657.97;;;21.27;100.00
54308;BME280;40208;39.778;2.710;2023-06-14T05:58:17;100668.47;;;21.30;100.00
54308;BME280;40208;39.778;2.710;2023-06-14T06:01:02;100679.16;;;21.41;100.00
54308;BME280;40208;39.778;2.710;2023-06-14T06:03:47;100650.72;;;21.27;100.00
54308;BME280;40208;39.778;2.710;2023-06-14T06:06:34;100720.81;;;21.68;100.00
54308;BME280;40208;39.778;2.710;2023-06-14T06:09:20;100746.69;;;21.80;100.00
54308;BME280;40208;39.778;2.710;2023-06-14T06:12:06;100758.19;;;21.82;100.00
54308;BME280;40208;39.778;2.710;2023-06-14T06:14:51;100683.44;;;21.53;100.00
54308;BME280;40208;39.778;2.710;2023-06-14T06:17:36;100730.31;;;21.91;100.00
54308;BME280;40208;39.778;2.710;2023-06-14T06:20:22;100720.50;;;21.80;100.00
54308;BME280;40208;39.778;2.710;2023-06-14T06:23:12;100704.88;;;21.74;100.00
54308;BME280;40208;39.778;2.710;2023-06-14T06:25:57;100477.44;;;20.46;100.00
54308;BME280;40208;39.778;2.710;2023-06-14T06:28:42;100722.09;;;21.93;100.00
54308;BME280;40208;39.778;2.710;2023-06-14T06:31:29;100751.63;;;22.04;100.00
54308;BME280;40208;39.778;2.710;2023-06-14T06:34:14;100494.38;;;20.58;100.00
54308;BME280;40208;39.778;2.710;2023-06-14T06:36:59;100714.94;;;21.92;100.00
54308;BME280;40208;39.778;2.710;2023-06-14T06:39:43;100726.63;;;22.02;100.00
54308;BME280;40208;39.778;2.710;2023-06-14T06:42:29;100748.63;;;22.17;100.00
54308;BME280;40208;39.778;2.710;2023-06-14T06:45:14;100709.81;;;21.98;100.00
54308;BME280;40208;39.778;2.710;2023-06-14T06:47:59;100749.50;;;22.27;100.00
54308;BME280;40208;39.778;2.710;2023-06-14T06:50:44;100747.91;;;22.34;100.00
54308;BME280;40208;39.778;2.710;2023-06-14T06:53:29;100683.81;;;21.97;100.00
54308;BME280;40208;39.778;2.710;2023-06-14T06:56:14;100771.34;;;22.53;100.00
54308;BME280;40208;39.778;2.710;2023-06-14T06:58:59;100775.16;;;22.60;100.00
54308;BME280;40208;39.778;2.710;2023-06-14T07:01:44;100782.69;;;22.67;100.00
54308;BME280;40208;39.778;2.710;2023-06-14T07:04:29;100739.75;;;22.44;100.00
54308;BME280;40208;39.778;2.710;2023-06-14T07:07:14;100801.69;;;22.84;100.00
54308;BME280;40208;39.778;2.710;2023-06-14T07:09:59;100808.22;;;22.92;100.00
54308;BME280;40208;39.778;2.710;2023-06-14T07:12:44;100809.94;;;22.93;100.00
54308;BME280;40208;39.778;2.710;2023-06-14T07:15:29;100814.19;;;22.95;100.00
54308;BME280;40208;39.778;2.710;2023-06-14T07:18:14;100813.16;;;23.06;100.00
54308;BME280;40208;39.778;2.710;2023-06-14T07:20:59;100812.91;;;23.09;100.00
54308;BME280;40208;39.778;2.710;2023-06-14T07:23:46;100809.56;;;23.15;100.00
54308;BME280;40208;39.778;2.710;2023-06-14T07:26:31;100753.09;;;22.93;100.00
54308;BME280;40208;39.778;2.710;2023-06-14T07:29:20;100791.72;;;23.22;100.00
54308;BME280;40208;39.778;2.710;2023-06-14T07:32:06;100704.59;;;22.81;100.00
54308;BME280;40208;39.778;2.710;2023-06-14T07:34:50;100749.00;;;23.16;100.00
54308;BME280;40208;39.778;2.710;2023-06-14T07:37:35;100813.16;;;23.61;100.00
54308;BME280;40208;39.778;2.710;2023-06-14T07:40:21;100807.28;;;23.66;100.00
54308;BME280;40208;39.778;2.710;2023-06-14T07:43:06;100790.28;;;23.74;100.00
54308;BME280;40208;39.778;2.710;2023-06-14T07:45:51;100801.41;;;23.88;100.00
54308;BME280;40208;39.778;2.710;2023-06-14T07:48:36;100792.75;;;23.85;100.00
54308;BME280;40208;39.778;2.710;2023-06-14T07:51:21;100732.16;;;23.58;100.00
54308;BME280;40208;39.778;2.710;2023-06-14T07:54:07;100801.66;;;23.95;100.00
54308;BME280;40208;39.778;2.710;2023-06-14T07:56:53;100825.41;;;24.01;100.00
54308;BME280;40208;39.778;2.710;2023-06-14T07:59:38;100744.88;;;23.58;100.00
54308;BME280;40208;39.778;2.710;2023-06-14T08:02:22;100820.41;;;24.06;100.00
54308;BME280;40208;39.778;2.710;2023-06-14T08:05:09;100811.38;;;24.06;100.00
54308;BME280;40208;39.778;2.710;2023-06-14T08:07:55;100823.09;;;24.06;100.00
54308;BME280;40208;39.778;2.710;2023-06-14T08:10:40;100759.03;;;23.69;100.00
54308;BME280;40208;39.778;2.710;2023-06-14T08:13:25;100831.63;;;24.11;100.00
54308;BME280;40208;39.778;2.710;2023-06-14T08:16:10;100829.06;;;24.10;100.00
54308;BME280;40208;39.778;2.710;2023-06-14T08:18:56;100804.81;;;23.90;100.00
54308;BME280;40208;39.778;2.710;2023-06-14T08:21:40;100814.50;;;23.93;100.00
54308;BME280;40208;39.778;2.710;2023-06-14T08:24:25;100761.34;;;23.64;100.00
54308;BME280;40208;39.778;2.710;2023-06-14T08:27:13;100816.75;;;23.98;100.00
54308;BME280;40208;39.778;2.710;2023-06-14T08:29:59;100832.88;;;23.99;100.00
54308;BME280;40208;39.778;2.710;2023-06-14T08:32:44;100829.94;;;23.92;100.00
54308;BME280;40208;39.778;2.710;2023-06-14T08:35:29;100811.72;;;23.85;100.00
54308;BME280;40208;39.778;2.710;2023-06-14T08:38:14;100840.91;;;23.91;100.00
54308;BME280;40208;39.778;2.710;2023-06-14T08:41:00;100839.84;;;24.02;100.00
54308;BME280;40208;39.778;2.710;2023-06-14T08:43:47;100849.53;;;24.04;100.00
54308;BME280;40208;39.778;2.710;2023-06-14T08:46:33;100849.53;;;24.04;100.00
54308;BME280;40208;39.778;2.710;2023-06-14T08:49:21;100864.06;;;24.03;100.00
54308;BME280;40208;39.778;2.710;2023-06-14T08:52:08;100849.22;;;23.89;100.00
54308;BME280;40208;39.778;2.710;2023-06-14T08:54:55;100892.09;;;23.94;100.00
54308;BME280;40208;39.778;2.710;2023-06-14T08:57:40;100859.44;;;23.68;100.00
54308;BME280;40208;39.778;2.710;2023-06-14T09:00:27;100905.13;;;23.90;100.00
54308;BME280;40208;39.778;2.710;2023-06-14T09:03:12;100889.41;;;23.66;100.00
54308;BME280;40208;39.778;2.710;2023-06-14T09:06:00;100912.47;;;23.80;100.00
54308;BME280;40208;39.778;2.710;2023-06-14T09:08:46;100899.94;;;23.69;100.00
54308;BME280;40208;39.778;2.710;2023-06-14T09:11:34;100937.72;;;23.81;100.00
54308;BME280;40208;39.778;2.710;2023-06-14T09:14:19;100942.56;;;23.77;100.00
54308;BME280;40208;39.778;2.710;2023-06-14T09:17:05;100937.56;;;23.73;100.00
54308;BME280;40208;39.778;2.710;2023-06-14T09:19:50;100939.72;;;23.79;100.00
54308;BME280;40208;39.778;2.710;2023-06-14T09:22:36;100794.53;;;23.03;100.00
54308;BME280;40208;39.778;2.710;2023-06-14T09:25:22;100940.31;;;24.00;100.00
54308;BME280;40208;39.778;2.710;2023-06-14T09:28:09;100905.19;;;23.99;100.00
54308;BME280;40208;39.778;2.710;2023-06-14T09:30:55;100941.50;;;24.33;100.00
54308;BME280;40208;39.778;2.710;2023-06-14T09:33:47;100935.28;;;24.41;100.00
54308;BME280;40208;39.778;2.710;2023-06-14T09:36:32;100937.41;;;24.47;100.00
54308;BME280;40208;39.778;2.710;2023-06-14T09:39:18;100943.06;;;24.54;100.00
54308;BME280;40208;39.778;2.710;2023-06-14T09:42:16;100903.38;;;24.35;100.00
54308;BME280;40208;39.778;2.710;2023-06-14T09:45:04;100947.00;;;24.60;100.00
54308;BME280;40208;39.778;2.710;2023-06-14T09:47:50;100949.34;;;24.54;100.00
54308;BME280;40208;39.778;2.710;2023-06-14T09:50:35;100950.97;;;24.47;100.00
54308;BME280;40208;39.778;2.710;2023-06-14T09:53:21;100982.06;;;24.53;100.00
54308;BME280;40208;39.778;2.710;2023-06-14T09:56:10;100960.41;;;24.43;100.00
54308;BME280;40208;39.778;2.710;2023-06-14T09:58:57;100956.41;;;24.47;100.00
54308;BME280;40208;39.778;2.710;2023-06-14T10:01:43;100981.44;;;24.59;100.00
54308;BME280;40208;39.778;2.710;2023-06-14T10:04:30;100941.63;;;24.32;100.00
54308;BME280;40208;39.778;2.710;2023-06-14T10:07:20;100972.38;;;24.50;100.00
54308;BME280;40208;39.778;2.710;2023-06-14T10:10:08;100978.09;;;24.47;100.00
54308;BME280;40208;39.778;2.710;2023-06-14T10:12:53;100993.09;;;24.51;100.00
54308;BME280;40208;39.778;2.710;2023-06-14T10:15:58;100991.03;;;24.53;100.00
54308;BME280;40208;39.778;2.710;2023-06-14T10:19:01;100965.50;;;24.28;100.00
54308;BME280;40208;39.778;2.710;2023-06-14T10:21:58;100993.59;;;24.55;100.00
54308;BME280;40208;39.778;2.710;2023-06-14T10:24:45;100991.47;;;24.59;100.00
54308;BME280;40208;39.778;2.710;2023-06-14T10:27:30;100936.53;;;24.29;100.00
54308;BME280;40208;39.778;2.710;2023-06-14T10:30:16;100982.50;;;24.48;100.00
54308;BME280;40208;39.778;2.710;2023-06-14T10:33:08;100966.94;;;24.50;100.00
54308;BME280;40208;39.778;2.710;2023-06-14T10:36:24;100979.72;;;24.76;100.00
54308;BME280;40208;39.778;2.710;2023-06-14T10:39:17;100986.69;;;24.79;100.00
54308;BME280;40208;39.778;2.710;2023-06-14T10:42:02;100876.78;;;24.21;100.00
54308;BME280;40208;39.778;2.710;2023-06-14T10:44:53;100975.38;;;24.83;100.00
54308;BME280;40208;39.778;2.710;2023-06-14T10:47:42;100986.94;;;24.85;100.00
54308;BME280;40208;39.778;2.710;2023-06-14T10:50:28;100997.22;;;25.00;100.00
54308;BME280;40208;39.778;2.710;2023-06-14T10:53:23;100935.13;;;24.79;100.00
54308;BME280;40208;39.778;2.710;2023-06-14T10:56:08;100979.97;;;25.09;100.00
54308;BME280;40208;39.778;2.710;2023-06-14T10:58:57;100925.09;;;24.79;100.00
54308;BME280;40208;39.778;2.710;2023-06-14T11:05:08;100970.94;;;25.26;100.00
54308;BME280;40208;39.778;2.710;2023-06-14T11:10:44;100965.38;;;25.10;100.00
54308;BME280;40208;39.778;2.710;2023-06-14T11:13:32;100968.41;;;25.07;100.00
54308;BME280;40208;39.778;2.710;2023-06-14T11:16:20;100982.22;;;25.13;100.00
54308;BME280;40208;39.778;2.710;2023-06-14T11:19:05;100925.97;;;24.80;100.00
54308;BME280;40208;39.778;2.710;2023-06-14T11:21:50;100963.50;;;25.10;100.00
54308;BME280;40208;39.778;2.710;2023-06-14T11:24:35;100963.59;;;25.01;100.00
54308;BME280;40208;39.778;2.710;2023-06-14T11:27:20;100982.50;;;25.10;100.00
54308;BME280;40208;39.778;2.710;2023-06-14T11:30:07;100979.97;;;25.09;100.00
54308;BME280;40208;39.778;2.710;2023-06-14T11:32:54;100979.97;;;25.09;100.00
54308;BME280;40208;39.778;2.710;2023-06-14T11:35:39;100974.75;;;25.15;100.00
54308;BME280;40208;39.778;2.710;2023-06-14T11:38:25;100965.16;;;25.21;100.00
54308;BME280;40208;39.778;2.710;2023-06-14T11:41:11;100965.50;;;25.26;100.00
54308;BME280;40208;39.778;2.710;2023-06-14T11:43:56;100963.59;;;25.18;100.00
54308;BME280;40208;39.778;2.710;2023-06-14T11:46:42;100977.88;;;25.21;100.00
54308;BME280;40208;39.778;2.710;2023-06-14T11:49:27;100824.09;;;24.23;100.00
54308;BME280;40208;39.778;2.710;2023-06-14T11:52:12;100973.00;;;25.06;100.00
54308;BME280;40208;39.778;2.710;2023-06-14T11:54:58;100986.81;;;25.13;100.00
54308;BME280;40208;39.778;2.710;2023-06-14T11:57:43;100971.06;;;24.98;100.00
54308;BME280;40208;39.778;2.710;2023-06-14T12:00:28;100934.38;;;24.68;100.00
54308;BME280;40208;39.778;2.710;2023-06-14T12:03:13;100973.63;;;25.00;100.00
54308;BME280;40208;39.778;2.710;2023-06-14T12:06:27;100989.44;;;25.05;100.00
54308;BME280;40208;39.778;2.710;2023-06-14T12:09:13;100973.28;;;24.77;100.00
54308;BME280;40208;39.778;2.710;2023-06-14T12:12:02;100986.59;;;24.88;100.00
54308;BME280;40208;39.778;2.710;2023-06-14T12:14:49;100988.94;;;25.01;100.00
54308;BME280;40208;39.778;2.710;2023-06-14T12:17:36;100995.50;;;24.98;100.00
54308;BME280;40208;39.778;2.710;2023-06-14T12:20:28;101003.81;;;24.97;100.00
54308;BME280;40208;39.778;2.710;2023-06-14T12:23:16;101007.22;;;24.99;100.00
54308;BME280;40208;39.778;2.710;2023-06-14T12:26:01;100986.69;;;24.96;100.00
54308;BME280;40208;39.778;2.710;2023-06-14T12:28:49;101004.03;;;25.04;100.00
54308;BME280;40208;39.778;2.710;2023-06-14T12:31:35;101005.38;;;25.00;100.00
54308;BME280;40208;39.778;2.710;2023-06-14T12:34:27;101008.09;;;25.00;100.00
54308;BME280;40208;39.778;2.710;2023-06-14T12:37:12;100987.31;;;24.90;100.00
54308;BME280;40208;39.778;2.710;2023-06-14T12:39:57;100976.13;;;24.93;100.00
54308;BME280;40208;39.778;2.710;2023-06-14T12:42:42;100937.69;;;24.62;100.00
54308;BME280;40208;39.778;2.710;2023-06-14T12:45:27;101017.19;;;25.16;100.00
54308;BME280;40208;39.778;2.710;2023-06-14T12:48:12;101020.50;;;25.20;100.00
54308;BME280;40208;39.778;2.710;2023-06-14T12:50:57;101025.81;;;25.12;100.00
54308;BME280;40208;39.778;2.710;2023-06-14T12:53:43;101024.81;;;25.13;100.00
54308;BME280;40208;39.778;2.710;2023-06-14T12:56:28;100846.09;;;24.02;100.00
54308;BME280;40208;39.778;2.710;2023-06-14T12:59:13;101021.41;;;25.11;100.00
54308;BME280;40208;39.778;2.710;2023-06-14T13:01:58;100996.47;;;24.89;100.00
54308;BME280;40208;39.778;2.710;2023-06-14T13:04:43;101028.00;;;25.08;100.00
54308;BME280;40208;39.778;2.710;2023-06-14T13:07:30;101019.09;;;24.98;100.00
54308;BME280;40208;39.778;2.710;2023-06-14T13:10:16;100986.31;;;24.73;100.00
54308;BME280;40208;39.778;2.710;2023-06-14T13:13:02;100990.63;;;24.84;100.00
54308;BME280;40208;39.778;2.710;2023-06-14T13:15:49;101016.09;;;25.01;100.00
54308;BME280;40208;39.778;2.710;2023-06-14T13:18:35;100960.66;;;24.68;100.00
54308;BME280;40208;39.778;2.710;2023-06-14T13:21:20;101040.81;;;25.16;100.00
54308;BME280;40208;39.778;2.710;2023-06-14T13:24:05;101044.50;;;25.15;100.00
54308;BME280;40208;39.778;2.710;2023-06-14T13:26:50;101006.34;;;24.98;100.00
54308;BME280;40208;39.778;2.710;2023-06-14T13:29:35;101031.72;;;25.07;100.00
54308;BME280;40208;39.778;2.710;2023-06-14T13:32:21;101016.31;;;24.90;100.00
54308;BME280;40208;39.778;2.710;2023-06-14T13:35:08;101040.66;;;25.00;100.00
54308;BME280;40208;39.778;2.710;2023-06-14T13:37:55;101029.25;;;24.96;100.00
54308;BME280;40208;39.778;2.710;2023-06-14T13:40:42;101035.00;;;24.93;100.00
54308;BME280;40208;39.778;2.710;2023-06-14T13:43:27;101049.13;;;24.96;100.00
54308;BME280;40208;39.778;2.710;2023-06-14T13:46:11;100988.41;;;24.62;100.00
54308;BME280;40208;39.778;2.710;2023-06-14T13:48:57;101036.63;;;24.86;100.00
54308;BME280;40208;39.778;2.710;2023-06-14T13:51:46;101013.94;;;24.87;100.00
54308;BME280;40208;39.778;2.710;2023-06-14T13:54:31;101026.06;;;25.01;100.00
54308;BME280;40208;39.778;2.710;2023-06-14T13:57:19;101024.22;;;25.01;100.00
54308;BME280;40208;39.778;2.710;2023-06-14T14:00:05;101019.41;;;24.95;100.00
54308;BME280;40208;39.778;2.710;2023-06-14T14:02:50;101026.94;;;25.01;100.00
54308;BME280;40208;39.778;2.710;2023-06-14T14:05:35;101035.28;;;25.08;100.00
54308;BME280;40208;39.778;2.710;2023-06-14T14:08:20;101033.44;;;25.08;100.00
54308;BME280;40208;39.778;2.710;2023-06-14T14:11:05;101030.56;;;25.10;100.00
54308;BME280;40208;39.778;2.710;2023-06-14T14:13:50;100931.13;;;24.47;100.00
54308;BME280;40208;39.778;2.710;2023-06-14T14:16:36;101000.03;;;24.90;100.00
54308;BME280;40208;39.778;2.710;2023-06-14T14:19:21;101036.38;;;25.15;100.00
54308;BME280;40208;39.778;2.710;2023-06-14T14:22:06;100992.97;;;24.97;100.00
54308;BME280;40208;39.778;2.710;2023-06-14T14:24:51;101025.28;;;25.26;100.00
54308;BME280;40208;39.778;2.710;2023-06-14T14:27:36;101041.31;;;25.37;100.00